sensor_id;sensor_type;location;lat;lon;timestamp;P1;durP1;ratioP1;P2;durP2;ratioP2
23472;SDS011;11909;52.516;13.564;2023-12-07T00:00:25;31.70;;;20.08;;
23472;SDS011;11909;52.516;13.564;2023-12-07T00:02:52;32.05;;;19.42;;
23472;SDS011;11909;52.516;13.564;2023-12-07T00:05:20;27.92;;;18.15;;
23472;SDS011;11909;52.516;13.564;2023-12-07T00:07:48;30.73;;;19.17;;
23472;SDS011;11909;52.516;13.564;2023-12-07T00:10:16;30.20;;;19.48;;
23472;SDS011;11909;52.516;13.564;2023-12-07T00:12:44;30.25;;;19.35;;
23472;SDS011;11909;52.516;13.564;2023-12-07T00:15:12;26.10;;;17.60;;
23472;SDS011;11909;52.516;13.564;2023-12-07T00:17:41;26.50;;;17.17;;
23472;SDS011;11909;52.516;13.564;2023-12-07T00:20:10;29.83;;;19.13;;
23472;SDS011;11909;52.516;13.564;2023-12-07T00:22:38;29.70;;;18.55;;
23472;SDS011;11909;52.516;13.564;2023-12-07T00:25:08;31.27;;;19.20;;
23472;SDS011;11909;52.516;13.564;2023-12-07T00:27:35;31.05;;;19.67;;
23472;SDS011;11909;52.516;13.564;2023-12-07T00:30:04;25.67;;;17.80;;
23472;SDS011;11909;52.516;13.564;2023-12-07T00:32:32;29.65;;;19.23;;
23472;SDS011;11909;52.516;13.564;2023-12-07T00:35:01;31.20;;;19.85;;
23472;SDS011;11909;52.516;13.564;2023-12-07T00:37:30;28.23;;;18.45;;
23472;SDS011;11909;52.516;13.564;2023-12-07T00:39:58;31.23;;;19.85;;
23472;SDS011;11909;52.516;13.564;2023-12-07T00:42:26;31.17;;;19.35;;
23472;SDS011;11909;52.516;13.564;2023-12-07T00:44:54;28.63;;;18.73;;
23472;SDS011;11909;52.516;13.564;2023-12-07T00:47:22;27.77;;;19.27;;
23472;SDS011;11909;52.516;13.564;2023-12-07T00:49:51;30.13;;;19.05;;
23472;SDS011;11909;52.516;13.564;2023-12-07T00:52:20;31.52;;;19.42;;
23472;SDS011;11909;52.516;13.564;2023-12-07T00:54:48;25.45;;;18.13;;
23472;SDS011;11909;52.516;13.564;2023-12-07T00:57:16;28.42;;;17.98;;
23472;SDS011;11909;52.516;13.564;2023-12-07T00:59:44;27.33;;;18.33;;
23472;SDS011;11909;52.516;13.564;2023-12-07T01:02:12;29.05;;;19.05;;
23472;SDS011;11909;52.516;13.564;2023-12-07T01:04:40;30.48;;;20.17;;
23472;SDS011;11909;52.516;13.564;2023-12-07T01:07:08;27.90;;;19.65;;
23472;SDS011;11909;52.516;13.564;2023-12-07T01:09:37;31.30;;;19.52;;
23472;SDS011;11909;52.516;13.564;2023-12-07T01:12:05;29.52;;;20.30;;
23472;SDS011;11909;52.516;13.564;2023-12-07T01:14:33;28.25;;;18.83;;
23472;SDS011;11909;52.516;13.564;2023-12-07T01:17:01;28.08;;;19.27;;
23472;SDS011;11909;52.516;13.564;2023-12-07T01:19:29;28.13;;;18.98;;
23472;SDS011;11909;52.516;13.564;2023-12-07T01:21:57;28.55;;;19.13;;
23472;SDS011;11909;52.516;13.564;2023-12-07T01:24:25;29.50;;;19.63;;
23472;SDS011;11909;52.516;13.564;2023-12-07T01:26:54;29.60;;;19.42;;
23472;SDS011;11909;52.516;13.564;2023-12-07T01:29:23;29.03;;;19.07;;
23472;SDS011;11909;52.516;13.564;2023-12-07T01:31:50;30.70;;;19.70;;
23472;SDS011;11909;52.516;13.564;2023-12-07T01:34:18;28.30;;;19.30;;
23472;SDS011;11909;52.516;13.564;2023-12-07T01:36:47;27.15;;;18.65;;
23472;SDS011;11909;52.516;13.564;2023-12-07T01:39:15;27.38;;;18.25;;
23472;SDS011;11909;52.516;13.564;2023-12-07T01:41:43;28.65;;;18.77;;
23472;SDS011;11909;52.516;13.564;2023-12-07T01:44:12;28.70;;;19.50;;
23472;SDS011;11909;52.516;13.564;2023-12-07T01:46:40;28.98;;;19.48;;
23472;SDS011;11909;52.516;13.564;2023-12-07T01:49:09;27.45;;;18.83;;
23472;SDS011;11909;52.516;13.564;2023-12-07T01:51:37;29.35;;;19.45;;
23472;SDS011;11909;52.516;13.564;2023-12-07T01:54:05;26.33;;;18.67;;
23472;SDS011;11909;52.516;13.564;2023-12-07T01:56:33;27.20;;;19.02;;
23472;SDS011;11909;52.516;13.564;2023-12-07T01:59:02;26.77;;;18.30;;
23472;SDS011;11909;52.516;13.564;2023-12-07T02:01:31;26.75;;;18.88;;
23472;SDS011;11909;52.516;13.564;2023-12-07T02:03:59;29.42;;;19.15;;
23472;SDS011;11909;52.516;13.564;2023-12-07T02:06:27;27.13;;;17.77;;
23472;SDS011;11909;52.516;13.564;2023-12-07T02:08:55;25.85;;;18.15;;
23472;SDS011;11909;52.516;13.564;2023-12-07T02:30:13;28.55;;;18.95;;
23472;SDS011;11909;52.516;13.564;2023-12-07T02:32:42;27.80;;;20.05;;
23472;SDS011;11909;52.516;13.564;2023-12-07T02:35:12;28.30;;;19.50;;
23472;SDS011;11909;52.516;13.564;2023-12-07T02:37:41;30.40;;;19.42;;
23472;SDS011;11909;52.516;13.564;2023-12-07T02:40:12;25.70;;;17.98;;
23472;SDS011;11909;52.516;13.564;2023-12-07T02:42:41;29.33;;;19.33;;
23472;SDS011;11909;52.516;13.564;2023-12-07T02:45:10;25.60;;;17.98;;
23472;SDS011;11909;52.516;13.564;2023-12-07T02:47:40;26.30;;;18.10;;
23472;SDS011;11909;52.516;13.564;2023-12-07T02:50:09;28.48;;;19.38;;
23472;SDS011;11909;52.516;13.564;2023-12-07T02:52:37;30.17;;;18.88;;
23472;SDS011;11909;52.516;13.564;2023-12-07T02:55:06;28.40;;;18.95;;
23472;SDS011;11909;52.516;13.564;2023-12-07T02:57:35;27.48;;;19.02;;
23472;SDS011;11909;52.516;13.564;2023-12-07T03:00:03;27.98;;;19.23;;
23472;SDS011;11909;52.516;13.564;2023-12-07T03:02:35;29.63;;;19.83;;
23472;SDS011;11909;52.516;13.564;2023-12-07T03:05:04;29.00;;;19.05;;
23472;SDS011;11909;52.516;13.564;2023-12-07T03:07:34;27.73;;;18.83;;
23472;SDS011;11909;52.516;13.564;2023-12-07T03:10:02;30.08;;;20.02;;
23472;SDS011;11909;52.516;13.564;2023-12-07T03:12:30;31.08;;;20.73;;
23472;SDS011;11909;52.516;13.564;2023-12-07T03:14:58;27.23;;;18.30;;
23472;SDS011;11909;52.516;13.564;2023-12-07T03:17:26;30.02;;;19.58;;
23472;SDS011;11909;52.516;13.564;2023-12-07T03:19:55;27.65;;;18.85;;
23472;SDS011;11909;52.516;13.564;2023-12-07T03:22:23;28.93;;;19.20;;
23472;SDS011;11909;52.516;13.564;2023-12-07T03:24:52;29.63;;;20.23;;
23472;SDS011;11909;52.516;13.564;2023-12-07T03:27:20;28.60;;;19.20;;
23472;SDS011;11909;52.516;13.564;2023-12-07T03:29:48;30.38;;;19.38;;
23472;SDS011;11909;52.516;13.564;2023-12-07T03:32:17;31.25;;;20.83;;
23472;SDS011;11909;52.516;13.564;2023-12-07T03:34:45;29.30;;;19.33;;
23472;SDS011;11909;52.516;13.564;2023-12-07T03:37:14;27.58;;;19.05;;
23472;SDS011;11909;52.516;13.564;2023-12-07T03:39:42;30.42;;;18.90;;
23472;SDS011;11909;52.516;13.564;2023-12-07T03:42:10;29.67;;;19.65;;
23472;SDS011;11909;52.516;13.564;2023-12-07T03:44:58;29.88;;;19.85;;
23472;SDS011;11909;52.516;13.564;2023-12-07T03:47:26;29.90;;;20.50;;
23472;SDS011;11909;52.516;13.564;2023-12-07T03:49:54;32.13;;;20.20;;
23472;SDS011;11909;52.516;13.564;2023-12-07T03:52:24;27.13;;;18.95;;
23472;SDS011;11909;52.516;13.564;2023-12-07T03:54:52;29.02;;;19.45;;
23472;SDS011;11909;52.516;13.564;2023-12-07T03:57:20;28.48;;;19.35;;
23472;SDS011;11909;52.516;13.564;2023-12-07T03:59:48;30.02;;;19.88;;
23472;SDS011;11909;52.516;13.564;2023-12-07T04:02:16;29.42;;;19.55;;
23472;SDS011;11909;52.516;13.564;2023-12-07T04:04:43;30.17;;;20.25;;
23472;SDS011;11909;52.516;13.564;2023-12-07T04:07:12;28.70;;;19.25;;
23472;SDS011;11909;52.516;13.564;2023-12-07T04:09:41;29.80;;;20.48;;
23472;SDS011;11909;52.516;13.564;2023-12-07T04:12:09;24.75;;;18.67;;
23472;SDS011;11909;52.516;13.564;2023-12-07T04:14:37;28.40;;;19.20;;
23472;SDS011;11909;52.516;13.564;2023-12-07T04:17:05;30.30;;;19.15;;
23472;SDS011;11909;52.516;13.564;2023-12-07T04:19:33;28.45;;;19.08;;
23472;SDS011;11909;52.516;13.564;2023-12-07T04:22:01;29.65;;;19.60;;
23472;SDS011;11909;52.516;13.564;2023-12-07T04:24:29;29.33;;;19.30;;
23472;SDS011;11909;52.516;13.564;2023-12-07T04:26:58;31.52;;;21.13;;
23472;SDS011;11909;52.516;13.564;2023-12-07T04:29:26;28.93;;;20.20;;
23472;SDS011;11909;52.516;13.564;2023-12-07T04:31:54;29.40;;;19.88;;
23472;SDS011;11909;52.516;13.564;2023-12-07T04:34:22;28.95;;;19.45;;
23472;SDS011;11909;52.516;13.564;2023-12-07T04:36:50;31.42;;;20.40;;
23472;SDS011;11909;52.516;13.564;2023-12-07T04:39:18;31.30;;;20.40;;
23472;SDS011;11909;52.516;13.564;2023-12-07T04:41:46;32.70;;;20.98;;
23472;SDS011;11909;52.516;13.564;2023-12-07T04:44:15;28.20;;;19.25;;
23472;SDS011;11909;52.516;13.564;2023-12-07T04:46:43;30.63;;;20.35;;
23472;SDS011;11909;52.516;13.564;2023-12-07T04:49:11;31.20;;;19.80;;
23472;SDS011;11909;52.516;13.564;2023-12-07T04:51:39;30.55;;;20.63;;
23472;SDS011;11909;52.516;13.564;2023-12-07T04:54:08;32.83;;;20.52;;
23472;SDS011;11909;52.516;13.564;2023-12-07T04:56:45;33.33;;;22.05;;
23472;SDS011;11909;52.516;13.564;2023-12-07T04:59:13;31.65;;;21.33;;
23472;SDS011;11909;52.516;13.564;2023-12-07T05:01:42;32.08;;;21.42;;
23472;SDS011;11909;52.516;13.564;2023-12-07T05:04:10;33.33;;;21.38;;
23472;SDS011;11909;52.516;13.564;2023-12-07T05:06:38;35.03;;;22.40;;
23472;SDS011;11909;52.516;13.564;2023-12-07T05:09:06;32.00;;;20.77;;
23472;SDS011;11909;52.516;13.564;2023-12-07T05:11:35;31.35;;;20.67;;
23472;SDS011;11909;52.516;13.564;2023-12-07T05:14:04;32.97;;;21.63;;
23472;SDS011;11909;52.516;13.564;2023-12-07T05:16:32;29.15;;;20.25;;
23472;SDS011;11909;52.516;13.564;2023-12-07T05:19:02;32.72;;;21.75;;
23472;SDS011;11909;52.516;13.564;2023-12-07T05:21:30;33.47;;;22.00;;
23472;SDS011;11909;52.516;13.564;2023-12-07T05:23:58;34.08;;;21.30;;
23472;SDS011;11909;52.516;13.564;2023-12-07T05:26:26;34.08;;;21.48;;
23472;SDS011;11909;52.516;13.564;2023-12-07T05:28:54;33.40;;;21.52;;
23472;SDS011;11909;52.516;13.564;2023-12-07T05:31:21;32.42;;;22.60;;
23472;SDS011;11909;52.516;13.564;2023-12-07T05:33:49;33.72;;;21.58;;
23472;SDS011;11909;52.516;13.564;2023-12-07T05:36:19;30.63;;;21.27;;
23472;SDS011;11909;52.516;13.564;2023-12-07T05:38:46;31.48;;;21.02;;
23472;SDS011;11909;52.516;13.564;2023-12-07T05:41:14;31.13;;;21.20;;
23472;SDS011;11909;52.516;13.564;2023-12-07T05:43:43;29.95;;;19.80;;
23472;SDS011;11909;52.516;13.564;2023-12-07T05:46:11;30.88;;;20.35;;
23472;SDS011;11909;52.516;13.564;2023-12-07T05:48:38;30.85;;;21.08;;
23472;SDS011;11909;52.516;13.564;2023-12-07T05:51:11;36.17;;;23.17;;
23472;SDS011;11909;52.516;13.564;2023-12-07T05:53:41;31.58;;;21.17;;
23472;SDS011;11909;52.516;13.564;2023-12-07T05:56:09;32.10;;;20.70;;
23472;SDS011;11909;52.516;13.564;2023-12-07T05:58:37;29.17;;;19.95;;
23472;SDS011;11909;52.516;13.564;2023-12-07T06:01:05;32.33;;;21.73;;
23472;SDS011;11909;52.516;13.564;2023-12-07T06:03:34;33.45;;;20.98;;
23472;SDS011;11909;52.516;13.564;2023-12-07T06:06:03;34.55;;;22.02;;
23472;SDS011;11909;52.516;13.564;2023-12-07T06:08:31;46.10;;;26.13;;
23472;SDS011;11909;52.516;13.564;2023-12-07T06:11:01;38.17;;;23.27;;
23472;SDS011;11909;52.516;13.564;2023-12-07T06:13:29;37.45;;;23.67;;
23472;SDS011;11909;52.516;13.564;2023-12-07T06:15:57;40.47;;;24.77;;
23472;SDS011;11909;52.516;13.564;2023-12-07T06:18:26;33.50;;;22.33;;
23472;SDS011;11909;52.516;13.564;2023-12-07T06:20:54;33.30;;;21.95;;
23472;SDS011;11909;52.516;13.564;2023-12-07T06:23:22;35.13;;;23.27;;
23472;SDS011;11909;52.516;13.564;2023-12-07T06:25:50;32.08;;;21.20;;
23472;SDS011;11909;52.516;13.564;2023-12-07T06:28:19;35.65;;;23.48;;
23472;SDS011;11909;52.516;13.564;2023-12-07T06:30:47;37.33;;;23.05;;
23472;SDS011;11909;52.516;13.564;2023-12-07T06:33:15;39.30;;;24.65;;
23472;SDS011;11909;52.516;13.564;2023-12-07T06:35:43;36.63;;;23.15;;
23472;SDS011;11909;52.516;13.564;2023-12-07T06:38:12;40.47;;;24.33;;
23472;SDS011;11909;52.516;13.564;2023-12-07T06:40:40;35.30;;;22.98;;
23472;SDS011;11909;52.516;13.564;2023-12-07T06:43:09;36.00;;;23.23;;
23472;SDS011;11909;52.516;13.564;2023-12-07T06:45:39;36.42;;;23.33;;
23472;SDS011;11909;52.516;13.564;2023-12-07T06:48:07;36.60;;;22.73;;
23472;SDS011;11909;52.516;13.564;2023-12-07T06:50:35;34.00;;;22.63;;
23472;SDS011;11909;52.516;13.564;2023-12-07T06:53:03;35.67;;;23.17;;
23472;SDS011;11909;52.516;13.564;2023-12-07T06:55:31;40.22;;;24.13;;
23472;SDS011;11909;52.516;13.564;2023-12-07T06:58:03;34.70;;;22.30;;
23472;SDS011;11909;52.516;13.564;2023-12-07T07:00:31;39.67;;;24.60;;
23472;SDS011;11909;52.516;13.564;2023-12-07T07:03:01;39.65;;;23.73;;
23472;SDS011;11909;52.516;13.564;2023-12-07T07:05:29;43.35;;;24.60;;
23472;SDS011;11909;52.516;13.564;2023-12-07T07:07:57;41.35;;;24.08;;
23472;SDS011;11909;52.516;13.564;2023-12-07T07:10:25;42.55;;;24.88;;
23472;SDS011;11909;52.516;13.564;2023-12-07T07:12:52;39.05;;;23.42;;
23472;SDS011;11909;52.516;13.564;2023-12-07T07:15:20;39.35;;;22.85;;
23472;SDS011;11909;52.516;13.564;2023-12-07T07:17:50;31.25;;;20.27;;
23472;SDS011;11909;52.516;13.564;2023-12-07T07:20:20;42.42;;;25.23;;
23472;SDS011;11909;52.516;13.564;2023-12-07T07:22:48;41.55;;;24.95;;
23472;SDS011;11909;52.516;13.564;2023-12-07T07:25:16;40.92;;;23.90;;
23472;SDS011;11909;52.516;13.564;2023-12-07T07:27:45;45.83;;;25.63;;
23472;SDS011;11909;52.516;13.564;2023-12-07T07:30:14;39.42;;;23.42;;
23472;SDS011;11909;52.516;13.564;2023-12-07T07:32:42;39.45;;;23.45;;
23472;SDS011;11909;52.516;13.564;2023-12-07T07:35:10;39.50;;;24.10;;
23472;SDS011;11909;52.516;13.564;2023-12-07T07:37:40;37.28;;;22.10;;
23472;SDS011;11909;52.516;13.564;2023-12-07T07:40:09;39.38;;;24.42;;
23472;SDS011;11909;52.516;13.564;2023-12-07T07:42:38;41.20;;;22.87;;
23472;SDS011;11909;52.516;13.564;2023-12-07T07:45:07;40.42;;;23.98;;
23472;SDS011;11909;52.516;13.564;2023-12-07T07:47:36;52.85;;;27.70;;
23472;SDS011;11909;52.516;13.564;2023-12-07T07:50:04;52.83;;;28.42;;
23472;SDS011;11909;52.516;13.564;2023-12-07T07:52:33;43.85;;;25.55;;
23472;SDS011;11909;52.516;13.564;2023-12-07T07:55:02;41.28;;;23.83;;
23472;SDS011;11909;52.516;13.564;2023-12-07T07:57:31;37.70;;;22.90;;
23472;SDS011;11909;52.516;13.564;2023-12-07T07:59:59;43.78;;;26.10;;
23472;SDS011;11909;52.516;13.564;2023-12-07T08:02:27;41.30;;;24.77;;
23472;SDS011;11909;52.516;13.564;2023-12-07T08:04:55;52.33;;;27.98;;
23472;SDS011;11909;52.516;13.564;2023-12-07T08:07:23;72.68;;;35.90;;
23472;SDS011;11909;52.516;13.564;2023-12-07T08:09:52;55.25;;;28.42;;
23472;SDS011;11909;52.516;13.564;2023-12-07T08:12:21;45.25;;;25.90;;
23472;SDS011;11909;52.516;13.564;2023-12-07T08:14:50;43.03;;;25.92;;
23472;SDS011;11909;52.516;13.564;2023-12-07T08:17:18;43.53;;;26.30;;
23472;SDS011;11909;52.516;13.564;2023-12-07T08:19:47;43.23;;;25.87;;
23472;SDS011;11909;52.516;13.564;2023-12-07T08:22:16;56.22;;;32.53;;
23472;SDS011;11909;52.516;13.564;2023-12-07T08:24:44;44.78;;;27.85;;
23472;SDS011;11909;52.516;13.564;2023-12-07T08:27:24;44.78;;;25.40;;
23472;SDS011;11909;52.516;13.564;2023-12-07T08:29:52;44.00;;;24.95;;
23472;SDS011;11909;52.516;13.564;2023-12-07T08:32:20;40.55;;;23.70;;
23472;SDS011;11909;52.516;13.564;2023-12-07T08:34:48;43.25;;;25.67;;
23472;SDS011;11909;52.516;13.564;2023-12-07T08:37:16;41.95;;;24.77;;
23472;SDS011;11909;52.516;13.564;2023-12-07T08:39:44;42.53;;;26.02;;
23472;SDS011;11909;52.516;13.564;2023-12-07T08:42:11;47.38;;;26.48;;
23472;SDS011;11909;52.516;13.564;2023-12-07T08:44:42;50.53;;;26.15;;
23472;SDS011;11909;52.516;13.564;2023-12-07T08:47:10;43.42;;;25.50;;
23472;SDS011;11909;52.516;13.564;2023-12-07T08:49:38;48.28;;;26.15;;
23472;SDS011;11909;52.516;13.564;2023-12-07T08:52:06;47.83;;;26.27;;
23472;SDS011;11909;52.516;13.564;2023-12-07T08:54:54;46.95;;;26.23;;
23472;SDS011;11909;52.516;13.564;2023-12-07T08:57:22;45.80;;;26.20;;
23472;SDS011;11909;52.516;13.564;2023-12-07T08:59:52;45.80;;;25.70;;
23472;SDS011;11909;52.516;13.564;2023-12-07T09:05:07;51.25;;;25.67;;
23472;SDS011;11909;52.516;13.564;2023-12-07T09:07:36;51.10;;;26.67;;
23472;SDS011;11909;52.516;13.564;2023-12-07T09:10:05;53.95;;;27.13;;
23472;SDS011;11909;52.516;13.564;2023-12-07T09:12:33;46.10;;;25.45;;
23472;SDS011;11909;52.516;13.564;2023-12-07T09:15:07;43.78;;;25.83;;
23472;SDS011;11909;52.516;13.564;2023-12-07T09:17:37;51.92;;;26.63;;
23472;SDS011;11909;52.516;13.564;2023-12-07T09:20:06;47.92;;;26.38;;
23472;SDS011;11909;52.516;13.564;2023-12-07T09:22:40;51.15;;;25.73;;
23472;SDS011;11909;52.516;13.564;2023-12-07T09:25:09;51.37;;;25.83;;
23472;SDS011;11909;52.516;13.564;2023-12-07T09:27:37;46.97;;;25.98;;
23472;SDS011;11909;52.516;13.564;2023-12-07T09:30:08;51.95;;;26.70;;
23472;SDS011;11909;52.516;13.564;2023-12-07T09:32:39;46.08;;;26.42;;
23472;SDS011;11909;52.516;13.564;2023-12-07T09:35:11;47.65;;;25.40;;
23472;SDS011;11909;52.516;13.564;2023-12-07T09:37:42;47.30;;;25.45;;
23472;SDS011;11909;52.516;13.564;2023-12-07T09:40:14;45.10;;;24.75;;
23472;SDS011;11909;52.516;13.564;2023-12-07T09:42:44;47.28;;;24.50;;
23472;SDS011;11909;52.516;13.564;2023-12-07T09:45:14;46.53;;;24.88;;
23472;SDS011;11909;52.516;13.564;2023-12-07T09:47:45;45.42;;;23.77;;
23472;SDS011;11909;52.516;13.564;2023-12-07T09:50:16;44.58;;;24.27;;
23472;SDS011;11909;52.516;13.564;2023-12-07T09:52:47;38.50;;;22.02;;
23472;SDS011;11909;52.516;13.564;2023-12-07T09:55:29;42.90;;;22.52;;
23472;SDS011;11909;52.516;13.564;2023-12-07T09:57:58;42.80;;;22.77;;
23472;SDS011;11909;52.516;13.564;2023-12-07T10:00:28;37.92;;;21.45;;
23472;SDS011;11909;52.516;13.564;2023-12-07T10:02:56;40.40;;;24.05;;
23472;SDS011;11909;52.516;13.564;2023-12-07T10:05:24;37.45;;;21.60;;
23472;SDS011;11909;52.516;13.564;2023-12-07T10:07:53;37.90;;;20.88;;
23472;SDS011;11909;52.516;13.564;2023-12-07T10:10:21;40.38;;;21.08;;
23472;SDS011;11909;52.516;13.564;2023-12-07T10:12:51;37.53;;;21.30;;
23472;SDS011;11909;52.516;13.564;2023-12-07T10:15:19;37.33;;;21.95;;
23472;SDS011;11909;52.516;13.564;2023-12-07T10:17:49;34.30;;;21.10;;
23472;SDS011;11909;52.516;13.564;2023-12-07T10:20:19;35.30;;;20.10;;
23472;SDS011;11909;52.516;13.564;2023-12-07T10:23:00;36.95;;;21.05;;
23472;SDS011;11909;52.516;13.564;2023-12-07T10:25:29;36.28;;;20.42;;
23472;SDS011;11909;52.516;13.564;2023-12-07T10:27:57;34.63;;;20.40;;
23472;SDS011;11909;52.516;13.564;2023-12-07T10:30:25;36.72;;;21.08;;
23472;SDS011;11909;52.516;13.564;2023-12-07T10:32:56;35.05;;;19.98;;
23472;SDS011;11909;52.516;13.564;2023-12-07T10:35:24;36.08;;;21.38;;
23472;SDS011;11909;52.516;13.564;2023-12-07T10:37:52;35.58;;;19.10;;
23472;SDS011;11909;52.516;13.564;2023-12-07T10:40:20;34.55;;;20.08;;
23472;SDS011;11909;52.516;13.564;2023-12-07T10:42:48;31.02;;;19.13;;
23472;SDS011;11909;52.516;13.564;2023-12-07T10:45:16;32.60;;;20.58;;
23472;SDS011;11909;52.516;13.564;2023-12-07T10:47:45;33.33;;;19.65;;
23472;SDS011;11909;52.516;13.564;2023-12-07T10:50:15;33.83;;;19.45;;
23472;SDS011;11909;52.516;13.564;2023-12-07T10:52:51;34.15;;;19.60;;
23472;SDS011;11909;52.516;13.564;2023-12-07T10:55:21;31.67;;;18.83;;
23472;SDS011;11909;52.516;13.564;2023-12-07T10:57:55;30.00;;;18.30;;
23472;SDS011;11909;52.516;13.564;2023-12-07T11:00:23;32.58;;;19.20;;
23472;SDS011;11909;52.516;13.564;2023-12-07T11:03:09;37.67;;;20.73;;
23472;SDS011;11909;52.516;13.564;2023-12-07T11:05:40;34.15;;;19.30;;
23472;SDS011;11909;52.516;13.564;2023-12-07T11:08:09;30.60;;;19.03;;
23472;SDS011;11909;52.516;13.564;2023-12-07T11:10:43;34.45;;;19.75;;
23472;SDS011;11909;52.516;13.564;2023-12-07T11:13:17;30.92;;;18.70;;
23472;SDS011;11909;52.516;13.564;2023-12-07T11:15:48;33.65;;;19.60;;
23472;SDS011;11909;52.516;13.564;2023-12-07T11:18:15;36.28;;;20.23;;
23472;SDS011;11909;52.516;13.564;2023-12-07T11:20:45;36.30;;;19.70;;
23472;SDS011;11909;52.516;13.564;2023-12-07T11:25:43;35.90;;;19.60;;
23472;SDS011;11909;52.516;13.564;2023-12-07T11:28:11;38.97;;;20.92;;
23472;SDS011;11909;52.516;13.564;2023-12-07T11:30:41;38.10;;;20.35;;
23472;SDS011;11909;52.516;13.564;2023-12-07T11:33:10;36.93;;;20.97;;
23472;SDS011;11909;52.516;13.564;2023-12-07T11:38:33;42.90;;;21.63;;
23472;SDS011;11909;52.516;13.564;2023-12-07T11:41:03;44.47;;;22.85;;
23472;SDS011;11909;52.516;13.564;2023-12-07T11:43:41;38.95;;;21.42;;
23472;SDS011;11909;52.516;13.564;2023-12-07T11:46:13;40.40;;;21.80;;
23472;SDS011;11909;52.516;13.564;2023-12-07T11:51:15;38.38;;;21.17;;
23472;SDS011;11909;52.516;13.564;2023-12-07T11:53:44;38.08;;;21.17;;
23472;SDS011;11909;52.516;13.564;2023-12-07T11:56:11;43.13;;;22.40;;
23472;SDS011;11909;52.516;13.564;2023-12-07T11:58:40;36.50;;;21.25;;
23472;SDS011;11909;52.516;13.564;2023-12-07T12:01:08;39.45;;;21.52;;
23472;SDS011;11909;52.516;13.564;2023-12-07T12:03:36;39.72;;;21.85;;
23472;SDS011;11909;52.516;13.564;2023-12-07T12:06:05;36.17;;;20.88;;
23472;SDS011;11909;52.516;13.564;2023-12-07T12:08:39;36.55;;;20.77;;
23472;SDS011;11909;52.516;13.564;2023-12-07T12:11:08;38.65;;;21.45;;
23472;SDS011;11909;52.516;13.564;2023-12-07T12:13:36;41.45;;;21.75;;
23472;SDS011;11909;52.516;13.564;2023-12-07T12:16:05;38.45;;;22.13;;
23472;SDS011;11909;52.516;13.564;2023-12-07T12:18:34;38.72;;;21.42;;
23472;SDS011;11909;52.516;13.564;2023-12-07T12:21:03;38.80;;;22.02;;
23472;SDS011;11909;52.516;13.564;2023-12-07T12:23:31;39.47;;;21.02;;
23472;SDS011;11909;52.516;13.564;2023-12-07T12:26:00;39.25;;;21.42;;
23472;SDS011;11909;52.516;13.564;2023-12-07T12:28:29;36.03;;;21.42;;
23472;SDS011;11909;52.516;13.564;2023-12-07T12:30:59;38.90;;;21.83;;
23472;SDS011;11909;52.516;13.564;2023-12-07T12:33:27;36.25;;;19.95;;
23472;SDS011;11909;52.516;13.564;2023-12-07T12:36:02;37.13;;;21.30;;
23472;SDS011;11909;52.516;13.564;2023-12-07T12:38:34;36.20;;;19.70;;
23472;SDS011;11909;52.516;13.564;2023-12-07T12:41:10;34.25;;;20.00;;
23472;SDS011;11909;52.516;13.564;2023-12-07T12:43:40;39.55;;;22.13;;
23472;SDS011;11909;52.516;13.564;2023-12-07T12:46:09;38.03;;;21.45;;
23472;SDS011;11909;52.516;13.564;2023-12-07T12:48:51;42.45;;;22.52;;
23472;SDS011;11909;52.516;13.564;2023-12-07T12:51:20;37.33;;;22.27;;
23472;SDS011;11909;52.516;13.564;2023-12-07T12:53:49;33.67;;;20.73;;
23472;SDS011;11909;52.516;13.564;2023-12-07T12:56:19;36.13;;;21.08;;
23472;SDS011;11909;52.516;13.564;2023-12-07T12:58:49;40.08;;;21.77;;
23472;SDS011;11909;52.516;13.564;2023-12-07T13:01:18;38.85;;;21.75;;
23472;SDS011;11909;52.516;13.564;2023-12-07T13:03:47;37.23;;;21.47;;
23472;SDS011;11909;52.516;13.564;2023-12-07T13:06:16;39.03;;;22.02;;
23472;SDS011;11909;52.516;13.564;2023-12-07T13:08:45;40.58;;;22.95;;
23472;SDS011;11909;52.516;13.564;2023-12-07T13:11:14;38.40;;;21.80;;
23472;SDS011;11909;52.516;13.564;2023-12-07T13:13:45;37.00;;;20.67;;
23472;SDS011;11909;52.516;13.564;2023-12-07T13:16:15;37.58;;;22.13;;
23472;SDS011;11909;52.516;13.564;2023-12-07T13:18:43;42.88;;;23.80;;
23472;SDS011;11909;52.516;13.564;2023-12-07T13:21:11;43.58;;;23.42;;
23472;SDS011;11909;52.516;13.564;2023-12-07T13:26:13;47.53;;;24.63;;
23472;SDS011;11909;52.516;13.564;2023-12-07T13:28:41;42.90;;;23.02;;
23472;SDS011;11909;52.516;13.564;2023-12-07T13:31:10;42.45;;;23.30;;
23472;SDS011;11909;52.516;13.564;2023-12-07T13:33:38;49.25;;;26.52;;
23472;SDS011;11909;52.516;13.564;2023-12-07T13:36:19;40.90;;;24.35;;
23472;SDS011;11909;52.516;13.564;2023-12-07T13:38:48;46.33;;;25.65;;
23472;SDS011;11909;52.516;13.564;2023-12-07T13:41:17;44.08;;;25.65;;
23472;SDS011;11909;52.516;13.564;2023-12-07T13:43:45;48.58;;;26.88;;
23472;SDS011;11909;52.516;13.564;2023-12-07T13:46:17;47.67;;;27.95;;
23472;SDS011;11909;52.516;13.564;2023-12-07T13:48:46;45.30;;;26.77;;
23472;SDS011;11909;52.516;13.564;2023-12-07T13:51:15;51.10;;;29.17;;
23472;SDS011;11909;52.516;13.564;2023-12-07T13:53:43;50.10;;;27.25;;
23472;SDS011;11909;52.516;13.564;2023-12-07T13:56:11;49.92;;;29.30;;
23472;SDS011;11909;52.516;13.564;2023-12-07T13:58:39;53.38;;;29.70;;
23472;SDS011;11909;52.516;13.564;2023-12-07T14:01:07;50.38;;;28.98;;
23472;SDS011;11909;52.516;13.564;2023-12-07T14:03:36;52.40;;;29.92;;
23472;SDS011;11909;52.516;13.564;2023-12-07T14:06:05;51.13;;;28.85;;
23472;SDS011;11909;52.516;13.564;2023-12-07T14:08:46;48.85;;;29.65;;
23472;SDS011;11909;52.516;13.564;2023-12-07T14:11:15;48.97;;;28.52;;
23472;SDS011;11909;52.516;13.564;2023-12-07T14:13:43;54.22;;;29.50;;
23472;SDS011;11909;52.516;13.564;2023-12-07T14:16:12;53.22;;;30.98;;
23472;SDS011;11909;52.516;13.564;2023-12-07T14:18:53;58.10;;;32.63;;
23472;SDS011;11909;52.516;13.564;2023-12-07T14:21:40;57.47;;;31.77;;
23472;SDS011;11909;52.516;13.564;2023-12-07T14:24:21;58.08;;;30.40;;
23472;SDS011;11909;52.516;13.564;2023-12-07T14:26:49;58.85;;;30.40;;
23472;SDS011;11909;52.516;13.564;2023-12-07T14:29:17;63.00;;;33.60;;
23472;SDS011;11909;52.516;13.564;2023-12-07T14:31:52;125.18;;;52.50;;
23472;SDS011;11909;52.516;13.564;2023-12-07T14:34:22;66.63;;;35.50;;
23472;SDS011;11909;52.516;13.564;2023-12-07T14:37:00;52.93;;;30.80;;
23472;SDS011;11909;52.516;13.564;2023-12-07T14:39:29;57.75;;;32.13;;
23472;SDS011;11909;52.516;13.564;2023-12-07T14:41:57;59.53;;;32.28;;
23472;SDS011;11909;52.516;13.564;2023-12-07T14:44:25;57.25;;;32.35;;
23472;SDS011;11909;52.516;13.564;2023-12-07T14:46:55;59.78;;;32.00;;
23472;SDS011;11909;52.516;13.564;2023-12-07T14:49:25;54.22;;;31.08;;
23472;SDS011;11909;52.516;13.564;2023-12-07T14:51:54;48.05;;;28.73;;